Time;durP1;ratioP1;P1;durP2;ratioP2;P2;SDS_P1;SDS_P2;PMS_P1;PMS_P2;Temp;Humidity;BMP_temperature;BMP_pressure;BME280_temperature;BME280_humidity;BME280_pressure;Samples;Min_cycle;Max_cycle;Signal;HPM_P1;HPM_P2
2022/03/04 00:00:50;;;;;;;13.07;9.83;;;2.10;1.00;;;;;;6302746;28;20258;-54
2022/03/04 00:03:53;;;;;;;11.10;9.90;;;1.90;1.00;;;;;;6308048;28;20890;-55
2022/03/04 00:06:56;;;;;;;12.87;10.17;;;1.90;1.00;;;;;;6303156;28;20739;-58
2022/03/04 00:10:01;;;;;;;10.40;9.43;;;1.90;1.00;;;;;;6307261;28;20376;-56
2022/03/04 00:13:04;;;;;;;12.60;10.30;;;1.90;1.00;;;;;;6295183;28;20225;-55
2022/03/04 00:16:07;;;;;;;11.53;10.47;;;1.80;1.00;;;;;;6299763;28;20239;-56
2022/03/04 00:19:10;;;;;;;11.70;10.70;;;1.90;1.00;;;;;;6305127;28;20228;-55
2022/03/04 00:22:15;;;;;;;10.67;9.73;;;1.80;1.00;;;;;;6307200;28;20305;-55
2022/03/04 00:25:19;;;;;;;11.60;10.40;;;1.70;1.00;;;;;;6307031;28;20323;-56
2022/03/04 00:28:22;;;;;;;10.47;9.07;;;1.80;1.00;;;;;;6301404;28;20308;-55
2022/03/04 00:31:25;;;;;;;11.37;9.67;;;2.00;1.00;;;;;;6303832;28;20317;-55
2022/03/04 00:34:28;;;;;;;13.10;10.00;;;1.80;1.00;;;;;;6301008;28;20256;-57
2022/03/04 00:37:31;;;;;;;10.90;10.00;;;1.80;1.00;;;;;;6306923;28;20413;-55
2022/03/04 00:40:35;;;;;;;11.23;10.07;;;1.80;1.00;;;;;;6306783;28;20604;-54
2022/03/04 00:43:38;;;;;;;10.47;9.60;;;1.90;1.00;;;;;;6306024;28;20743;-55
2022/03/04 00:46:41;;;;;;;14.27;10.63;;;1.70;1.00;;;;;;6307843;28;20268;-55
2022/03/04 00:49:44;;;;;;;13.27;11.00;;;1.90;1.00;;;;;;6299089;28;20228;-55
2022/03/04 00:52:47;;;;;;;14.20;11.60;;;1.90;1.00;;;;;;6306725;28;20308;-56
2022/03/04 00:55:51;;;;;;;15.77;11.83;;;1.90;1.00;;;;;;6304243;28;20320;-56
2022/03/04 00:58:54;;;;;;;17.80;12.20;;;1.80;1.00;;;;;;6303914;28;20451;-55
2022/03/04 01:01:57;;;;;;;15.07;12.70;;;1.90;1.00;;;;;;6299265;28;20315;-56
2022/03/04 01:05:00;;;;;;;17.63;12.93;;;1.90;1.00;;;;;;6306797;28;20611;-55
2022/03/04 01:08:03;;;;;;;18.77;13.67;;;1.80;1.00;;;;;;6302577;28;20270;-55
2022/03/04 01:11:07;;;;;;;26.67;15.37;;;1.80;1.00;;;;;;6297686;28;20232;-55
2022/03/04 01:14:10;;;;;;;23.47;15.50;;;1.90;1.00;;;;;;6308832;28;20236;-54
2022/03/04 01:17:13;;;;;;;24.63;15.40;;;1.90;1.00;;;;;;6293445;28;20236;-58
2022/03/04 01:20:16;;;;;;;24.63;14.20;;;2.00;1.00;;;;;;6296047;28;20386;-56
2022/03/04 01:23:18;;;;;;;26.47;16.90;;;1.70;1.00;;;;;;6302418;28;20233;-57
2022/03/04 01:26:22;;;;;;;34.20;17.57;;;1.70;1.00;;;;;;6301096;28;20556;-56
2022/03/04 01:29:25;;;;;;;41.60;19.73;;;1.90;1.00;;;;;;6298893;28;20225;-55
2022/03/04 01:32:28;;;;;;;39.93;19.97;;;1.90;1.00;;;;;;6299652;28;20702;-55
2022/03/04 01:35:31;;;;;;;46.03;22.67;;;1.80;1.00;;;;;;6310607;28;20228;-55
2022/03/04 01:38:34;;;;;;;48.07;21.07;;;1.80;1.00;;;;;;6306925;28;20496;-55
2022/03/04 01:41:39;;;;;;;49.47;22.60;;;2.00;1.00;;;;;;6312359;28;20239;-56
2022/03/04 01:44:41;;;;;;;48.67;21.83;;;1.70;1.00;;;;;;6309876;28;20229;-56
2022/03/04 01:47:44;;;;;;;57.30;23.57;;;2.10;1.00;;;;;;6308235;28;20241;-56
2022/03/04 01:50:48;;;;;;;61.27;23.90;;;1.90;1.00;;;;;;6309129;28;20335;-55
2022/03/04 01:53:51;;;;;;;61.57;27.10;;;1.80;1.00;;;;;;6309068;28;20250;-56
2022/03/04 01:56:55;;;;;;;57.07;24.33;;;1.90;1.00;;;;;;6311132;28;20311;-55
2022/03/04 01:59:58;;;;;;;56.30;26.00;;;1.90;1.00;;;;;;6309068;28;20289;-55
2022/03/04 02:03:01;;;;;;;64.97;24.90;;;1.80;1.00;;;;;;6305451;28;20716;-55
2022/03/04 02:06:04;;;;;;;56.37;23.20;;;1.80;1.00;;;;;;6312485;28;20256;-56
2022/03/04 02:09:07;;;;;;;42.43;20.30;;;2.10;1.00;;;;;;6309859;28;20256;-55
2022/03/04 02:12:11;;;;;;;54.00;21.67;;;2.00;1.00;;;;;;6311013;28;20854;-56
2022/03/04 02:15:14;;;;;;;60.33;23.27;;;1.90;1.00;;;;;;6312088;28;20844;-55
2022/03/04 02:18:18;;;;;;;56.53;21.83;;;1.90;1.00;;;;;;6308592;28;20329;-56
2022/03/04 02:21:23;;;;;;;54.27;22.67;;;2.00;1.00;;;;;;6299823;28;20232;-56
2022/03/04 02:24:29;;;;;;;48.30;22.20;;;1.90;1.00;;;;;;6311435;28;20248;-56
2022/03/04 02:27:32;;;;;;;49.47;21.27;;;2.00;1.00;;;;;;6299567;28;20729;-55
2022/03/04 02:30:36;;;;;;;48.27;21.23;;;1.90;1.00;;;;;;6307982;28;20293;-55
2022/03/04 02:33:39;;;;;;;50.17;20.73;;;2.00;1.00;;;;;;6310788;28;20320;-55
2022/03/04 02:36:43;;;;;;;46.23;20.60;;;2.10;1.00;;;;;;6311814;28;20262;-56
2022/03/04 02:39:49;;;;;;;45.00;18.77;;;1.90;1.00;;;;;;6297391;28;20823;-56
2022/03/04 02:42:52;;;;;;;45.70;18.03;;;1.90;1.00;;;;;;6311616;28;20770;-54
2022/03/04 02:45:55;;;;;;;44.67;16.40;;;1.90;1.00;;;;;;6310885;28;20248;-56
2022/03/04 02:48:57;;;;;;;41.53;17.83;;;1.80;1.00;;;;;;6305049;28;20235;-56
2022/03/04 02:52:00;;;;;;;39.90;17.97;;;1.90;1.00;;;;;;6311330;28;20359;-56
2022/03/04 02:55:10;;;;;;;41.63;16.60;;;2.00;1.00;;;;;;6310043;28;20506;-56
2022/03/04 02:58:12;;;;;;;40.17;17.10;;;2.10;1.00;;;;;;6301410;28;20229;-55
2022/03/04 03:01:15;;;;;;;28.10;14.63;;;2.20;1.00;;;;;;6310096;28;20274;-57
2022/03/04 03:04:19;;;;;;;39.20;16.03;;;2.10;1.00;;;;;;6310263;28;20323;-57
2022/03/04 03:07:22;;;;;;;42.97;17.00;;;2.00;1.00;;;;;;6299185;28;20243;-55
2022/03/04 03:10:26;;;;;;;39.07;16.07;;;2.00;1.00;;;;;;6309557;28;20324;-55
2022/03/04 03:13:29;;;;;;;31.80;14.93;;;2.00;1.00;;;;;;6302321;28;20251;-57
2022/03/04 03:16:32;;;;;;;29.43;14.13;;;2.30;1.00;;;;;;6306570;28;20324;-56
2022/03/04 03:19:35;;;;;;;22.57;13.40;;;2.00;1.00;;;;;;6300836;28;20236;-55
2022/03/04 03:22:38;;;;;;;27.47;13.30;;;2.10;1.00;;;;;;6310121;28;20285;-55
2022/03/04 03:25:42;;;;;;;26.40;13.03;;;2.10;1.00;;;;;;6310539;28;20391;-55
2022/03/04 03:28:45;;;;;;;22.90;12.37;;;2.10;1.00;;;;;;6298903;28;20366;-55
2022/03/04 03:31:48;;;;;;;26.70;11.90;;;2.20;1.00;;;;;;6307796;28;20251;-56
2022/03/04 03:34:50;;;;;;;22.60;11.47;;;2.10;1.00;;;;;;6297912;28;20241;-56
2022/03/04 03:37:53;;;;;;;15.30;10.07;;;2.10;1.00;;;;;;6303547;28;20316;-55
2022/03/04 03:40:57;;;;;;;14.63;10.30;;;2.10;1.00;;;;;;6309186;28;20348;-55
2022/03/04 03:44:14;;;;;;;20.27;9.87;;;2.20;1.00;;;;;;6303534;28;20393;-55
2022/03/04 03:47:17;;;;;;;15.57;10.53;;;2.20;1.00;;;;;;6307399;28;20232;-57
2022/03/04 03:50:20;;;;;;;17.37;9.63;;;2.30;1.00;;;;;;6301133;28;20226;-57
2022/03/04 03:53:23;;;;;;;17.03;11.53;;;2.30;1.00;;;;;;6306792;28;20232;-55
2022/03/04 03:56:27;;;;;;;21.63;12.73;;;2.20;1.00;;;;;;6309385;28;20358;-55
2022/03/04 03:59:30;;;;;;;20.80;12.27;;;2.30;1.00;;;;;;6305998;28;20378;-59
2022/03/04 04:02:33;;;;;;;19.43;11.97;;;2.40;1.00;;;;;;6306363;28;20410;-56
2022/03/04 04:05:36;;;;;;;25.43;12.43;;;2.30;1.00;;;;;;6304937;28;20319;-55
2022/03/04 04:08:38;;;;;;;18.87;12.07;;;2.30;1.00;;;;;;6303100;28;20321;-56
2022/03/04 04:11:43;;;;;;;22.00;13.00;;;2.20;1.00;;;;;;6305032;28;20965;-57
2022/03/04 04:14:45;;;;;;;17.63;11.47;;;2.40;1.00;;;;;;6302034;28;20393;-56
2022/03/04 04:17:48;;;;;;;20.93;11.97;;;2.40;1.00;;;;;;6304717;28;20236;-56
2022/03/04 04:20:51;;;;;;;21.17;12.63;;;2.20;1.00;;;;;;6303941;28;20225;-56
2022/03/04 04:23:55;;;;;;;21.27;11.80;;;2.30;1.00;;;;;;6304297;28;20669;-55
2022/03/04 04:26:59;;;;;;;21.03;11.87;;;2.50;1.00;;;;;;6306798;28;20362;-56
2022/03/04 04:30:02;;;;;;;23.37;13.03;;;2.30;1.00;;;;;;6299331;28;20380;-55
2022/03/04 04:33:05;;;;;;;22.50;12.20;;;2.30;1.00;;;;;;6295594;28;20285;-54
2022/03/04 04:36:07;;;;;;;17.93;11.90;;;2.40;1.00;;;;;;6308507;28;20716;-55
2022/03/04 04:39:10;;;;;;;21.27;13.10;;;2.50;1.00;;;;;;6301783;28;20713;-55
2022/03/04 04:42:14;;;;;;;21.03;12.93;;;2.40;1.00;;;;;;6305139;28;20543;-55
2022/03/04 04:45:17;;;;;;;20.77;12.33;;;2.50;1.00;;;;;;6292712;28;20237;-55
2022/03/04 04:48:20;;;;;;;20.40;11.70;;;2.60;1.00;;;;;;6302005;28;20848;-56
2022/03/04 04:51:23;;;;;;;18.90;11.97;;;2.50;1.00;;;;;;6304911;28;20307;-55
2022/03/04 04:54:25;;;;;;;19.73;12.33;;;2.40;1.00;;;;;;6303749;28;20756;-55
2022/03/04 04:57:29;;;;;;;17.77;11.10;;;2.40;1.00;;;;;;6305295;28;20220;-57
2022/03/04 05:00:32;;;;;;;16.87;11.83;;;2.40;1.00;;;;;;6299457;28;20260;-55
2022/03/04 05:03:35;;;;;;;19.73;12.10;;;2.50;1.00;;;;;;6308391;28;20273;-57
2022/03/04 05:06:38;;;;;;;15.80;11.73;;;2.40;1.00;;;;;;6303425;28;20244;-55
2022/03/04 05:09:41;;;;;;;23.93;12.60;;;2.50;1.00;;;;;;6292392;28;20843;-56
2022/03/04 05:12:45;;;;;;;18.47;12.10;;;2.50;1.00;;;;;;6296702;28;20391;-55
2022/03/04 05:15:48;;;;;;;19.67;12.40;;;2.40;1.00;;;;;;6307243;28;20305;-55
2022/03/04 05:18:51;;;;;;;23.13;12.73;;;2.40;1.00;;;;;;6307757;28;20240;-55
2022/03/04 05:21:54;;;;;;;14.13;11.30;;;2.40;1.00;;;;;;6310708;28;20233;-58
2022/03/04 05:24:56;;;;;;;20.50;13.43;;;2.40;1.00;;;;;;6311151;28;20308;-56
2022/03/04 05:28:01;;;;;;;21.07;13.30;;;2.30;1.00;;;;;;6303157;28;20358;-56
2022/03/04 05:31:04;;;;;;;19.87;13.07;;;2.60;1.00;;;;;;6309151;28;20382;-55
2022/03/04 05:34:07;;;;;;;21.13;12.30;;;2.40;1.00;;;;;;6303991;28;20790;-56
2022/03/04 05:37:10;;;;;;;23.27;13.40;;;2.30;1.00;;;;;;6304095;28;20872;-56
2022/03/04 05:40:13;;;;;;;18.37;12.60;;;2.60;1.00;;;;;;6306819;28;20233;-55
2022/03/04 05:43:17;;;;;;;18.40;12.27;;;2.30;1.00;;;;;;6307991;28;20323;-55
2022/03/04 05:46:20;;;;;;;17.50;12.53;;;2.60;1.00;;;;;;6307563;28;20267;-55
2022/03/04 05:49:23;;;;;;;20.70;13.33;;;2.50;1.00;;;;;;6310681;28;20545;-57
2022/03/04 05:52:25;;;;;;;14.83;11.30;;;2.40;1.00;;;;;;6300017;28;20331;-56
2022/03/04 05:55:28;;;;;;;15.57;10.23;;;2.50;1.00;;;;;;6306006;28;20660;-56
2022/03/04 05:58:32;;;;;;;15.00;11.17;;;2.30;1.00;;;;;;6306066;28;20522;-55
2022/03/04 06:01:36;;;;;;;14.87;8.73;;;2.30;1.00;;;;;;6304487;28;20229;-60
2022/03/04 06:04:39;;;;;;;12.30;8.80;;;2.70;1.00;;;;;;6306370;28;20237;-55
2022/03/04 06:07:42;;;;;;;8.87;8.00;;;2.30;1.00;;;;;;6305628;28;20261;-56
2022/03/04 06:10:45;;;;;;;9.33;7.87;;;2.40;1.00;;;;;;6298125;28;20225;-55
2022/03/04 06:13:49;;;;;;;7.27;6.57;;;2.50;1.00;;;;;;6307989;28;20369;-57
2022/03/04 06:16:52;;;;;;;7.53;6.73;;;2.50;1.00;;;;;;6283453;28;20864;-55
2022/03/04 06:19:55;;;;;;;7.53;6.40;;;2.40;1.00;;;;;;6293880;28;20225;-56
2022/03/04 06:22:58;;;;;;;7.20;6.67;;;2.50;1.00;;;;;;6300805;28;20224;-56
2022/03/04 06:26:02;;;;;;;8.37;7.63;;;2.60;1.00;;;;;;6288151;28;20945;-55
2022/03/04 06:29:06;;;;;;;9.90;7.30;;;2.50;1.00;;;;;;6299746;28;20318;-56
2022/03/04 06:32:09;;;;;;;9.57;7.63;;;2.70;1.00;;;;;;6301663;28;20228;-55
2022/03/04 06:35:12;;;;;;;7.73;7.07;;;2.60;1.00;;;;;;6300956;28;20323;-57
2022/03/04 06:38:15;;;;;;;7.57;6.93;;;2.70;1.00;;;;;;6293541;28;20245;-56
2022/03/04 06:41:18;;;;;;;9.53;6.90;;;2.50;1.00;;;;;;6300400;28;20233;-57
2022/03/04 06:44:25;;;;;;;7.30;6.80;;;2.90;1.00;;;;;;6303478;28;20275;-56
2022/03/04 06:47:28;;;;;;;8.50;6.93;;;2.70;1.00;;;;;;6303721;28;20244;-55
2022/03/04 06:50:30;;;;;;;8.30;6.30;;;3.00;1.00;;;;;;6307569;28;20319;-55
2022/03/04 06:53:33;;;;;;;6.87;6.20;;;2.80;1.00;;;;;;6291544;28;20513;-56
2022/03/04 06:56:36;;;;;;;11.57;6.73;;;2.80;1.00;;;;;;6309041;28;20308;-55
2022/03/04 06:59:40;;;;;;;7.40;6.70;;;3.10;1.00;;;;;;6298243;28;20228;-55
2022/03/04 07:02:43;;;;;;;6.80;6.20;;;2.80;1.00;;;;;;6302184;28;20248;-56
2022/03/04 07:05:46;;;;;;;7.87;6.63;;;2.80;1.00;;;;;;6299238;28;20260;-55
2022/03/04 07:08:49;;;;;;;7.97;6.40;;;3.10;1.00;;;;;;6300033;28;20239;-56
2022/03/04 07:11:54;;;;;;;7.90;6.00;;;2.80;1.00;;;;;;6296444;28;20689;-56
2022/03/04 07:14:58;;;;;;;7.47;5.83;;;2.90;1.00;;;;;;6307475;28;20328;-55
2022/03/04 07:18:02;;;;;;;6.07;5.50;;;2.90;1.00;;;;;;6299872;28;20220;-55
2022/03/04 07:21:04;;;;;;;8.37;5.87;;;2.80;1.00;;;;;;6298484;28;20303;-57
2022/03/04 07:24:07;;;;;;;6.70;6.17;;;2.80;1.00;;;;;;6306946;28;20240;-56
2022/03/04 07:27:10;;;;;;;7.63;6.50;;;2.90;1.00;;;;;;6299706;28;20294;-55
2022/03/04 07:30:16;;;;;;;6.30;5.60;;;3.20;1.00;;;;;;6307292;28;20302;-57
2022/03/04 07:33:19;;;;;;;6.90;5.60;;;3.00;1.00;;;;;;6307775;28;20298;-57
2022/03/04 07:36:21;;;;;;;6.40;5.90;;;3.10;1.00;;;;;;6309553;28;20240;-56
2022/03/04 07:39:24;;;;;;;6.00;5.60;;;3.10;1.00;;;;;;6290864;28;20283;-56
2022/03/04 07:42:27;;;;;;;6.07;5.60;;;3.40;1.00;;;;;;6307359;28;20240;-55
2022/03/04 07:45:31;;;;;;;8.30;7.33;;;3.40;1.00;;;;;;6301489;28;20324;-56
2022/03/04 07:48:34;;;;;;;10.10;7.27;;;3.40;1.00;;;;;;6289349;28;20237;-56
2022/03/04 07:51:38;;;;;;;12.63;8.70;;;3.20;1.00;;;;;;6308744;28;20646;-55
2022/03/04 07:54:41;;;;;;;9.23;8.40;;;3.20;1.00;;;;;;6308296;28;20252;-56
2022/03/04 07:57:44;;;;;;;9.30;7.93;;;3.50;1.00;;;;;;6301001;28;20610;-57
2022/03/04 08:00:48;;;;;;;7.90;7.13;;;3.50;1.00;;;;;;6310145;28;20260;-56
2022/03/04 08:04:11;;;;;;;11.03;8.37;;;3.40;1.00;;;;;;6305196;28;20236;-56
2022/03/04 08:07:15;;;;;;;9.80;7.80;;;3.30;1.00;;;;;;6307093;28;20729;-56
2022/03/04 08:10:18;;;;;;;7.60;6.60;;;3.50;1.00;;;;;;6308431;28;20454;-56
2022/03/04 08:13:20;;;;;;;8.13;6.27;;;3.70;1.00;;;;;;6303229;28;20323;-59
2022/03/04 08:16:25;;;;;;;6.70;6.10;;;3.60;1.00;;;;;;6308231;28;20228;-57
2022/03/04 08:19:29;;;;;;;6.27;5.70;;;3.80;1.00;;;;;;6290971;28;20232;-56
2022/03/04 08:22:31;;;;;;;6.80;6.30;;;4.00;1.00;;;;;;6296118;28;20289;-57
2022/03/04 08:25:34;;;;;;;12.67;6.10;;;4.00;1.00;;;;;;6309113;28;20247;-56
2022/03/04 08:28:37;;;;;;;6.07;5.67;;;3.80;1.00;;;;;;6300397;28;20630;-56
2022/03/04 08:31:41;;;;;;;9.53;5.97;;;4.00;1.00;;;;;;6304833;28;20333;-56
2022/03/04 08:34:44;;;;;;;7.10;6.20;;;4.20;1.00;;;;;;6307662;28;20240;-56
2022/03/04 08:37:47;;;;;;;6.80;6.17;;;4.10;1.00;;;;;;6297472;28;20328;-56
2022/03/04 08:40:49;;;;;;;6.90;5.40;;;4.10;1.00;;;;;;6304471;28;20287;-57
2022/03/04 08:43:52;;;;;;;5.80;5.40;;;4.20;1.00;;;;;;6307647;28;20236;-56
2022/03/04 08:46:56;;;;;;;5.80;5.40;;;4.10;1.00;;;;;;6305730;28;20239;-55
2022/03/04 08:49:59;;;;;;;5.37;5.07;;;4.30;1.00;;;;;;6300445;28;20294;-56
2022/03/04 08:53:02;;;;;;;5.50;5.10;;;4.20;1.00;;;;;;6302246;28;20228;-56
2022/03/04 08:56:05;;;;;;;6.33;5.40;;;4.10;1.00;;;;;;6303857;28;20232;-56
2022/03/04 08:59:08;;;;;;;5.87;5.40;;;4.20;1.00;;;;;;6290928;28;20297;-57
2022/03/04 09:02:12;;;;;;;5.93;5.47;;;4.40;1.00;;;;;;6293000;28;20303;-55
2022/03/04 09:05:15;;;;;;;6.47;5.97;;;4.30;1.00;;;;;;6303742;28;20286;-57
2022/03/04 09:08:18;;;;;;;9.77;6.13;;;4.20;1.00;;;;;;6303279;28;20238;-56
2022/03/04 09:11:21;;;;;;;6.97;6.27;;;4.20;1.00;;;;;;6301641;28;20285;-55
2022/03/04 09:14:24;;;;;;;9.27;6.70;;;4.50;1.00;;;;;;6307090;28;20383;-55
2022/03/04 09:17:28;;;;;;;7.17;6.50;;;4.30;1.00;;;;;;6305795;28;20427;-56
2022/03/04 09:20:31;;;;;;;5.67;5.37;;;4.50;1.00;;;;;;6307505;28;20339;-56
2022/03/04 09:23:34;;;;;;;7.93;7.13;;;4.50;1.00;;;;;;6300352;28;20798;-56
2022/03/04 09:26:37;;;;;;;6.50;6.10;;;4.80;1.00;;;;;;6305530;28;20256;-56
2022/03/04 09:29:40;;;;;;;6.43;5.83;;;4.90;1.00;;;;;;6305172;28;20329;-56
2022/03/04 09:32:44;;;;;;;6.47;5.33;;;4.80;1.00;;;;;;6305661;28;20244;-56
2022/03/04 09:35:46;;;;;;;7.20;5.07;;;5.10;1.00;;;;;;6306711;28;20436;-56
2022/03/04 09:38:49;;;;;;;6.00;5.57;;;5.30;1.00;;;;;;6302537;28;20304;-56
2022/03/04 09:41:52;;;;;;;6.00;5.43;;;4.90;1.00;;;;;;6303063;28;20305;-56
2022/03/04 09:44:55;;;;;;;6.00;5.50;;;5.20;1.00;;;;;;6297653;28;20557;-56
2022/03/04 09:48:02;;;;;;;5.90;5.40;;;5.10;1.00;;;;;;6302303;28;20293;-56
2022/03/04 09:51:05;;;;;;;9.23;5.60;;;5.30;1.00;;;;;;6306343;28;20769;-58
2022/03/04 09:54:07;;;;;;;5.37;4.90;;;5.70;1.00;;;;;;6306588;28;20264;-57
2022/03/04 09:57:10;;;;;;;5.30;4.80;;;5.80;1.00;;;;;;6309116;28;20292;-56
2022/03/04 10:00:15;;;;;;;5.20;4.93;;;5.80;1.00;;;;;;6306251;28;20289;-56
2022/03/04 10:03:23;;;;;;;5.70;5.30;;;6.00;1.00;;;;;;6309476;28;20256;-56
2022/03/04 10:06:27;;;;;;;5.67;5.27;;;5.80;1.00;;;;;;6311465;28;20281;-56
2022/03/04 10:09:37;;;;;;;6.70;6.20;;;6.00;1.00;;;;;;6306261;28;20263;-56
2022/03/04 10:12:48;;;;;;;6.87;6.27;;;5.90;1.00;;;;;;6305808;28;20239;-56
2022/03/04 10:15:55;;;;;;;6.63;5.30;;;5.80;1.00;;;;;;6305319;28;20641;-56
2022/03/04 10:19:13;;;;;;;6.03;5.50;;;5.80;1.00;;;;;;6305891;28;20236;-57
2022/03/04 10:22:16;;;;;;;7.07;6.37;;;5.60;1.00;;;;;;6309895;28;20240;-58
2022/03/04 10:25:20;;;;;;;7.33;6.63;;;5.50;1.00;;;;;;6304139;28;20233;-56
2022/03/04 10:28:26;;;;;;;8.40;6.60;;;5.40;1.00;;;;;;6298137;28;20231;-56
2022/03/04 10:31:29;;;;;;;6.20;5.90;;;5.10;1.00;;;;;;6303348;28;20451;-57
2022/03/04 10:34:56;;;;;;;6.20;5.90;;;5.20;1.00;;;;;;6303715;28;20616;-57
2022/03/04 10:37:58;;;;;;;5.83;5.43;;;5.00;1.00;;;;;;6303011;28;20632;-56
2022/03/04 10:41:22;;;;;;;4.93;4.83;;;5.30;1.00;;;;;;6303305;28;20251;-56
2022/03/04 10:44:25;;;;;;;5.60;5.40;;;5.10;1.00;;;;;;6310428;28;20324;-57
2022/03/04 10:47:40;;;;;;;4.97;4.77;;;5.30;1.00;;;;;;6309168;28;20225;-57
2022/03/04 10:50:46;;;;;;;5.47;5.20;;;5.40;1.00;;;;;;6296872;28;20772;-57
2022/03/04 10:53:49;;;;;;;6.00;5.30;;;5.30;1.00;;;;;;6307405;28;20241;-57
2022/03/04 10:56:54;;;;;;;5.27;5.07;;;5.80;1.00;;;;;;6309844;28;20355;-58
2022/03/04 10:59:57;;;;;;;5.50;5.20;;;5.80;1.00;;;;;;6305408;28;20490;-57
2022/03/04 11:03:01;;;;;;;5.40;5.17;;;5.70;1.00;;;;;;6308805;28;20274;-58
2022/03/04 11:06:07;;;;;;;4.77;4.37;;;5.80;1.00;;;;;;6305182;28;20726;-59
2022/03/04 11:09:10;;;;;;;4.30;4.20;;;5.80;1.00;;;;;;6302682;28;20297;-57
2022/03/04 11:12:13;;;;;;;5.53;4.73;;;6.00;1.00;;;;;;6301460;28;20233;-57
2022/03/04 11:15:17;;;;;;;5.10;4.67;;;6.00;1.00;;;;;;6308399;28;20237;-57
2022/03/04 11:18:22;;;;;;;5.33;5.10;;;6.00;1.00;;;;;;6309216;28;20270;-57
2022/03/04 11:21:26;;;;;;;6.30;5.30;;;6.10;1.00;;;;;;6305073;28;20359;-57
2022/03/04 11:24:30;;;;;;;4.37;4.07;;;6.00;1.00;;;;;;6308732;28;20237;-58
2022/03/04 11:27:39;;;;;;;4.10;3.90;;;6.30;1.00;;;;;;6306873;28;20348;-59
2022/03/04 11:30:46;;;;;;;4.13;3.83;;;6.90;1.00;;;;;;6306974;28;20704;-58
2022/03/04 11:33:52;;;;;;;4.40;4.20;;;7.20;1.00;;;;;;6309376;28;20247;-61
2022/03/04 11:37:03;;;;;;;6.20;5.90;;;7.50;1.00;;;;;;6309352;28;20259;-57
2022/03/04 11:40:33;;;;;;;7.20;6.70;;;7.60;1.00;;;;;;6297902;28;20244;-58
2022/03/04 11:43:44;;;;;;;8.30;7.50;;;7.50;1.00;;;;;;6308983;28;20260;-59
2022/03/04 11:46:52;;;;;;;8.23;7.67;;;7.30;1.00;;;;;;6302166;28;20733;-58
2022/03/04 11:49:55;;;;;;;7.60;7.30;;;7.10;1.00;;;;;;6296458;28;20290;-57
2022/03/04 11:53:16;;;;;;;7.27;6.93;;;6.90;1.00;;;;;;6305892;28;20765;-57
2022/03/04 11:56:24;;;;;;;7.63;7.13;;;6.80;1.00;;;;;;6296515;28;20367;-57
2022/03/04 11:59:28;;;;;;;7.50;7.00;;;6.70;1.00;;;;;;6300279;28;20225;-60
2022/03/04 12:02:37;;;;;;;7.03;6.73;;;6.80;1.00;;;;;;6300723;28;20321;-58
2022/03/04 12:05:48;;;;;;;7.77;7.10;;;6.70;1.00;;;;;;6298445;28;20242;-58
2022/03/04 12:08:52;;;;;;;7.73;7.00;;;6.70;1.00;;;;;;6284233;28;20286;-58
2022/03/04 12:12:11;;;;;;;7.23;6.80;;;6.60;1.00;;;;;;6304344;28;20327;-58
2022/03/04 12:15:32;;;;;;;6.90;6.27;;;6.60;1.00;;;;;;6308111;28;20460;-57
2022/03/04 12:18:40;;;;;;;8.43;6.90;;;6.70;1.00;;;;;;6300644;28;20229;-58
2022/03/04 12:21:43;;;;;;;7.37;6.90;;;6.80;1.00;;;;;;6303284;28;20382;-57
2022/03/04 12:24:55;;;;;;;8.60;7.97;;;6.90;1.00;;;;;;6306021;28;20630;-57
2022/03/04 12:27:58;;;;;;;8.73;8.23;;;7.10;1.00;;;;;;6297431;28;20729;-57
2022/03/04 12:31:24;;;;;;;8.30;7.80;;;6.80;1.00;;;;;;6299533;28;20427;-56
2022/03/04 12:34:27;;;;;;;8.50;7.90;;;6.90;1.00;;;;;;6306286;28;20247;-57
2022/03/04 12:37:38;;;;;;;9.37;8.53;;;6.80;1.00;;;;;;6299350;28;20234;-57
2022/03/04 12:40:42;;;;;;;12.70;8.23;;;6.90;1.00;;;;;;6300069;28;20369;-57
2022/03/04 12:43:46;;;;;;;7.53;7.13;;;6.80;1.00;;;;;;6296838;28;20232;-57
2022/03/04 12:46:49;;;;;;;7.50;7.03;;;6.80;1.00;;;;;;6303855;28;20606;-56
2022/03/04 12:49:53;;;;;;;6.80;6.40;;;6.70;1.00;;;;;;6299154;28;20272;-57
2022/03/04 12:52:55;;;;;;;7.67;7.30;;;6.80;1.00;;;;;;6304777;28;20261;-58
2022/03/04 12:56:03;;;;;;;6.30;6.10;;;6.80;1.00;;;;;;6302521;28;20427;-57
2022/03/04 12:59:08;;;;;;;7.20;6.80;;;6.80;1.00;;;;;;6294835;28;20324;-58
2022/03/04 13:02:10;;;;;;;6.97;6.43;;;6.70;1.00;;;;;;6303939;28;20229;-57
2022/03/04 13:05:13;;;;;;;7.00;6.60;;;6.80;1.00;;;;;;6297894;28;20627;-57
2022/03/04 13:08:16;;;;;;;6.97;6.50;;;6.70;1.00;;;;;;6300875;28;20319;-57
2022/03/04 13:11:23;;;;;;;6.17;5.87;;;6.70;1.00;;;;;;6294942;28;20226;-57
2022/03/04 13:14:26;;;;;;;6.87;6.40;;;6.80;1.00;;;;;;6305929;28;20619;-57
2022/03/04 13:17:29;;;;;;;6.23;5.93;;;6.70;1.00;;;;;;6298427;28;20324;-57
2022/03/04 13:20:32;;;;;;;6.27;5.97;;;7.10;1.00;;;;;;6308799;28;20264;-58
2022/03/04 13:23:34;;;;;;;5.53;5.33;;;6.80;1.00;;;;;;6307263;28;20507;-58
2022/03/04 13:26:46;;;;;;;6.27;6.07;;;6.70;1.00;;;;;;6299280;28;20327;-58
2022/03/04 13:29:56;;;;;;;6.10;5.70;;;6.70;1.00;;;;;;6303422;28;20703;-57
2022/03/04 13:32:59;;;;;;;6.57;6.07;;;6.60;1.00;;;;;;6310601;28;20773;-57
2022/03/04 13:36:03;;;;;;;5.77;5.57;;;6.60;1.00;;;;;;6307650;28;20235;-58
2022/03/04 13:39:10;;;;;;;6.43;6.03;;;6.50;1.00;;;;;;6306439;28;20982;-58
2022/03/04 13:42:21;;;;;;;6.23;5.93;;;6.50;1.00;;;;;;6311322;28;20224;-58
2022/03/04 13:45:30;;;;;;;6.03;5.83;;;6.70;1.00;;;;;;6310232;28;20315;-58
2022/03/04 13:48:34;;;;;;;6.17;5.97;;;6.50;1.00;;;;;;6300155;28;20229;-57
2022/03/04 13:51:36;;;;;;;5.90;5.70;;;6.30;1.00;;;;;;6300240;28;20295;-57
2022/03/04 13:54:50;;;;;;;6.90;6.50;;;6.30;1.00;;;;;;6310890;28;20320;-57
2022/03/04 13:57:58;;;;;;;6.27;5.97;;;6.30;1.00;;;;;;6304429;28;20395;-56
2022/03/04 14:01:03;;;;;;;6.13;5.90;;;6.20;1.00;;;;;;6306951;28;20316;-56
2022/03/04 14:04:11;;;;;;;6.47;6.17;;;6.60;1.00;;;;;;6303187;28;20278;-56
2022/03/04 14:07:17;;;;;;;6.83;6.33;;;6.40;1.00;;;;;;6308824;28;20357;-57
2022/03/04 14:10:19;;;;;;;6.40;6.10;;;6.40;1.00;;;;;;6308957;28;20448;-57
2022/03/04 14:13:24;;;;;;;7.00;6.47;;;6.20;1.00;;;;;;6309153;28;20295;-58
2022/03/04 14:16:32;;;;;;;6.37;6.07;;;6.00;1.00;;;;;;6311312;28;20327;-56
2022/03/04 14:19:35;;;;;;;6.30;5.90;;;6.30;1.00;;;;;;6303116;28;20240;-57
2022/03/04 14:22:39;;;;;;;6.37;6.07;;;6.10;1.00;;;;;;6298664;28;20252;-57
2022/03/04 14:25:42;;;;;;;5.60;5.30;;;6.20;1.00;;;;;;6310668;28;20382;-57
2022/03/04 14:29:09;;;;;;;5.80;5.50;;;6.10;1.00;;;;;;6299904;28;22358;-56
2022/03/04 14:32:10;;;;;;;6.17;5.97;;;6.10;1.00;;;;;;6303355;28;20232;-57
2022/03/04 14:35:13;;;;;;;5.80;5.60;;;6.10;1.00;;;;;;6293147;28;20293;-57
2022/03/04 14:38:18;;;;;;;5.90;5.60;;;6.10;1.00;;;;;;6304599;28;20239;-57
2022/03/04 14:41:20;;;;;;;6.00;5.80;;;6.10;1.00;;;;;;6296065;28;20248;-57
2022/03/04 14:44:25;;;;;;;5.70;5.57;;;5.90;1.00;;;;;;6310113;28;20228;-57
2022/03/04 14:47:27;;;;;;;6.83;6.33;;;6.10;1.00;;;;;;6299308;28;20595;-57
2022/03/04 14:50:33;;;;;;;6.60;6.20;;;6.20;1.00;;;;;;6303730;28;20337;-57
2022/03/04 14:53:36;;;;;;;6.47;5.97;;;6.10;1.00;;;;;;6297649;28;20237;-58
2022/03/04 14:56:39;;;;;;;7.50;7.13;;;6.20;1.00;;;;;;6310076;28;20266;-57
2022/03/04 14:59:43;;;;;;;6.00;5.70;;;6.20;1.00;;;;;;6304633;28;20754;-58
2022/03/04 15:02:46;;;;;;;6.43;5.93;;;6.00;1.00;;;;;;6308415;28;20313;-57
2022/03/04 15:05:49;;;;;;;5.60;5.30;;;6.20;1.00;;;;;;6297438;28;20701;-56
2022/03/04 15:08:52;;;;;;;6.47;5.90;;;6.10;1.00;;;;;;6306154;28;20451;-57
2022/03/04 15:11:56;;;;;;;6.30;5.87;;;6.10;1.00;;;;;;6310866;28;20244;-59
2022/03/04 15:15:00;;;;;;;5.50;5.30;;;6.00;1.00;;;;;;6295426;28;20228;-60
2022/03/04 15:18:03;;;;;;;5.63;5.33;;;5.90;1.00;;;;;;6303360;28;20274;-57
2022/03/04 15:21:06;;;;;;;6.23;5.90;;;6.00;1.00;;;;;;6305175;28;20232;-57
2022/03/04 15:24:09;;;;;;;5.80;5.50;;;5.80;1.00;;;;;;6302420;28;20449;-57
2022/03/04 15:27:12;;;;;;;5.27;5.00;;;5.80;1.00;;;;;;6303205;28;20289;-57
2022/03/04 15:30:17;;;;;;;5.20;5.00;;;5.80;1.00;;;;;;6304087;28;20315;-57
2022/03/04 15:33:19;;;;;;;6.80;4.77;;;5.80;1.00;;;;;;6306932;28;20772;-57
2022/03/04 15:36:22;;;;;;;5.73;5.20;;;5.80;1.00;;;;;;6297346;28;20264;-57
2022/03/04 15:39:25;;;;;;;5.13;4.93;;;5.70;1.00;;;;;;6302805;28;20589;-57
2022/03/04 15:42:28;;;;;;;5.13;4.93;;;5.70;1.00;;;;;;6308037;28;20774;-56
2022/03/04 15:45:32;;;;;;;4.93;4.63;;;5.70;1.00;;;;;;6297871;28;20229;-56
2022/03/04 15:48:36;;;;;;;5.20;4.80;;;5.70;1.00;;;;;;6306527;28;20867;-59
2022/03/04 15:51:38;;;;;;;5.57;4.50;;;5.60;1.00;;;;;;6294932;28;20351;-58
2022/03/04 15:54:41;;;;;;;4.67;4.47;;;5.70;1.00;;;;;;6309607;28;20423;-57
2022/03/04 15:57:44;;;;;;;4.97;4.43;;;5.60;1.00;;;;;;6305238;28;20386;-57
2022/03/04 16:00:50;;;;;;;5.37;5.17;;;5.50;1.00;;;;;;6307578;28;20316;-57
2022/03/04 16:03:53;;;;;;;6.10;5.33;;;5.60;1.00;;;;;;6302738;28;20270;-56
2022/03/04 16:06:56;;;;;;;5.77;5.37;;;5.40;1.00;;;;;;6307933;28;20430;-57
2022/03/04 16:09:59;;;;;;;5.67;5.27;;;5.50;1.00;;;;;;6302912;28;20305;-56
2022/03/04 16:13:02;;;;;;;5.90;5.37;;;5.40;1.00;;;;;;6294648;28;20275;-58
2022/03/04 16:16:07;;;;;;;5.73;5.30;;;5.30;1.00;;;;;;6302194;28;20272;-56